Home > Products > Valid Products > MTR

000
SAUS43 KDLH 300157
MTRGNA
METAR KGNA 300156Z AUTO 00000KT 16/14 A2978 RMK AO1 SLP081 T01560144





000
SAUS43 KDLH 300057
MTRGNA
METAR KGNA 300056Z AUTO 00000KT 16/15 A2977 RMK AO1 SLP077 T01610150





000
SAUS43 KDLH 292357
MTRGNA
METAR KGNA 292356Z AUTO 06003KT 16/15 A2976 RMK AO1 SLP073 P0001
60019 T01560150 10161 20156 55005





000
SAUS43 KDLH 292257
MTRGNA
METAR KGNA 292256Z AUTO 06004KT 16/15 A2975 RMK AO1 SLP073 T01560150





000
SAUS43 KDLH 292157
MTRGNA
METAR KGNA 292156Z AUTO 06006KT 16/15 A2976 RMK AO1 SLP074 T01560150





000
SAUS43 KDLH 292057
MTRGNA
METAR KGNA 292056Z AUTO 06007KT 16/15 A2977 RMK AO1 SLP079 P0002
60018 T01560150 56019





000
SAUS43 KDLH 291957
MTRGNA
METAR KGNA 291956Z AUTO 08011KT 16/14 A2979 RMK AO1 SLP086 P0003
T01610144





000
SAUS43 KDLH 291857
MTRGNA
METAR KGNA 291856Z AUTO 07007KT 16/15 A2980 RMK AO1 SLP091 P0013
T01560150





000
SAUS43 KDLH 291757
MTRGNA
METAR KGNA 291756Z AUTO 07006KT 16/15 A2983 RMK AO1 SLP097 P0004
60011 T01610150 10172 20156 58010





000
SAUS43 KDLH 291657
MTRGNA
METAR KGNA 291656Z AUTO 08009KT 16/14 A2985 RMK AO1 SLP105 T01610144





000
SAUS43 KDLH 291558
MTRGNA
METAR KGNA 291556Z AUTO 06007KT 16/14 A2984 RMK AO1 SLP103 P0006
T01610144





000
SAUS43 KDLH 291457
MTRGNA
METAR KGNA 291456Z AUTO 06009KT 17/15 A2986 RMK AO1 SLP107 P0001
60001 T01670150 58014





000
SAUS43 KDLH 291357
MTRGNA
METAR KGNA 291356Z AUTO 07005KT 17/14 A2987 RMK AO1 SLP112 T01670144





000
SAUS43 KDLH 291258
MTRGNA
METAR KGNA 291256Z AUTO 06004KT 17/14 A2989 RMK AO1 SLP119 T01670144





000
SAUS43 KDLH 291157
MTRGNA
METAR KGNA 291156Z AUTO 05005KT 17/14 A2990 RMK AO1 SLP121 T01670139
10167 20144 58003





000
SAUS43 KDLH 291057
MTRGNA
METAR KGNA 291056Z AUTO 06004KT 17/13 A2990 RMK AO1 SLP123 T01670133





000
SAUS43 KDLH 290957
MTRGNA
METAR KGNA 290956Z AUTO 05003KT 16/13 A2991 RMK AO1 SLP125 T01610128





000
SAUS43 KDLH 290857
MTRGNA
METAR KGNA 290856Z AUTO 05004KT 16/12 A2991 RMK AO1 SLP124 T01560122
56015





000
SAUS43 KDLH 290757
MTRGNA
METAR KGNA 290756Z AUTO 00000KT 15/12 A2992 RMK AO1 SLP128 T01500122





000
SAUS43 KDLH 290657
MTRGNA
METAR KGNA 290656Z AUTO 00000KT 15/12 A2994 RMK AO1 SLP135 T01500122





000
SAUS43 KDLH 290557
MTRGNA
METAR KGNA 290556Z AUTO 04003KT 16/12 A2995 RMK AO1 SLP140 T01560117
10167 20144 401830106 56016





000
SAUS43 KDLH 290457
MTRGNA
METAR KGNA 290456Z AUTO 00000KT 15/12 A2997 RMK AO1 SLP144 T01500117





000
SAUS43 KDLH 290357
MTRGNA
METAR KGNA 290356Z AUTO 04004KT 16/11 A2998 RMK AO1 SLP148 T01610111





000
SAUS43 KDLH 290257
MTRGNA
METAR KGNA 290256Z AUTO 02004KT 16/11 A3000 RMK AO1 SLP155 T01560111
58006





000
SAUS43 KDLH 290157
MTRGNA
METAR KGNA 290156Z AUTO 00000KT 14/12 A3002 RMK AO1 SLP163 T01440122





000
SAUS43 KDLH 290057
MTRGNA
METAR KGNA 290056Z AUTO 00000KT 15/13 A3001 RMK AO1 SLP161 T01500128





000
SAUS43 KDLH 282357
MTRGNA
METAR KGNA 282356Z AUTO 00000KT 17/13 A3002 RMK AO1 SLP164 T01670128
10183 20167 56014





000
SAUS43 KDLH 282257
MTRGNA
METAR KGNA 282256Z AUTO 06004KT 17/14 A3003 RMK AO1 SLP168 T01720139





000
SAUS43 KDLH 282157
MTRGNA
METAR KGNA 282156Z AUTO 00000KT 17/14 A3004 RMK AO1 SLP173 T01670139





000
SAUS43 KDLH 282057
MTRGNA
METAR KGNA 282056Z AUTO 00000KT 17/14 A3006 RMK AO1 SLP177 T01720139
56014





000
SAUS43 KDLH 281957
MTRGNA
METAR KGNA 281956Z AUTO 13003KT 18/14 A3007 RMK AO1 SLP181 T01780139





000
SAUS43 KDLH 281857
MTRGNA
METAR KGNA 281856Z AUTO 00000KT 18/14 A3009 RMK AO1 SLP187 T01780144





000
SAUS43 KDLH 281757
MTRGNA
METAR KGNA 281756Z AUTO VRB03KT 17/14 A3010 RMK AO1 SLP191 T01720139
10178 20117 58008





000
SAUS43 KDLH 281657
MTRGNA
METAR KGNA 281656Z AUTO 08005KT 18/13 A3012 RMK AO1 SLP196 T01780133





000
SAUS43 KDLH 281557
MTRGNA
METAR KGNA 281556Z AUTO 07005KT 17/13 A3013 RMK AO1 SLP200 T01720128





000
SAUS43 KDLH 281457
MTRGNA
METAR KGNA 281456Z AUTO 09006KT 17/12 A3013 RMK AO1 SLP201 T01670122
53000





000
SAUS43 KDLH 281357
MTRGNA
METAR KGNA 281356Z AUTO 07005KT 16/11 A3012 RMK AO1 SLP199 T01610111





000
SAUS43 KDLH 281257
MTRGNA
METAR KGNA 281256Z AUTO 06006KT 16/10 A3012 RMK AO1 SLP200 T01560100





000
SAUS43 KDLH 281157
MTRGNA
METAR KGNA 281156Z AUTO 00000KT 12/09 A3012 RMK AO1 SLP200 T01170094
10133 20106 58001





000
SAUS43 KDLH 281057
MTRGNA
METAR KGNA 281056Z AUTO 00000KT 11/09 A3013 RMK AO1 SLP202 T01060094





000
SAUS43 KDLH 280957
MTRGNA
METAR KGNA 280956Z AUTO 00000KT 11/10 A3013 RMK AO1 SLP201 T01110100





000
SAUS43 KDLH 280857
MTRGNA
METAR KGNA 280856Z AUTO 00000KT 12/11 A3013 RMK AO1 SLP201 T01220106
58007





000
SAUS43 KDLH 280757
MTRGNA
METAR KGNA 280756Z AUTO 00000KT 13/11 A3014 RMK AO1 SLP205 T01280106





000
SAUS43 KDLH 280658
MTRGNA
METAR KGNA 280656Z AUTO 00000KT 13/11 A3015 RMK AO1 SLP209 T01330106





000
SAUS43 KDLH 280557
MTRGNA
METAR KGNA 280556Z AUTO 00000KT 13/10 A3015 RMK AO1 SLP207 T01330100
10156 20111 401890111 55000





000
SAUS43 KDLH 280457
MTRGNA
METAR KGNA 280456Z AUTO 00000KT 12/10 A3014 RMK AO1 SLP207 T01220100





000
SAUS43 KDLH 280357
MTRGNA
METAR KGNA 280356Z AUTO 00000KT 12/09 A3015 RMK AO1 SLP207 T01220094





000
SAUS43 KDLH 280257
MTRGNA
METAR KGNA 280256Z AUTO 32003KT 12/09 A3015 RMK AO1 SLP207 T01170094
50001





000
SAUS43 KDLH 280157
MTRGNA
METAR KGNA 280156Z AUTO 31003KT 12/09 A3015 RMK AO1 SLP211 T01170094





000
SAUS43 KDLH 280057
MTRGNA
METAR KGNA 280056Z AUTO 33003KT 13/10 A3014 RMK AO1 SLP206 T01330100





000
SAUS43 KDLH 272357
MTRGNA
METAR KGNA 272356Z AUTO VRB03KT 16/11 A3014 RMK AO1 SLP207 T01560106
10178 20150 56008





000
SAUS43 KDLH 272257
MTRGNA
METAR KGNA 272256Z AUTO 24005KT 16/12 A3015 RMK AO1 SLP208 T01560122





000
SAUS43 KDLH 272157
MTRGNA
METAR KGNA 272156Z AUTO 00000KT 17/13 A3016 RMK AO1 SLP211 T01670128





000
SAUS43 KDLH 272057
MTRGNA
METAR KGNA 272056Z AUTO 25006KT 17/12 A3017 RMK AO1 SLP214 T01670122
58007





000
SAUS43 KDLH 271957
MTRGNA
METAR KGNA 271956Z AUTO 25008KT 17/13 A3018 RMK AO1 SLP218 T01720128





000
SAUS43 KDLH 271857
MTRGNA
METAR KGNA 271856Z AUTO 24008KT 17/12 A3019 RMK AO1 SLP220 T01670122





000
SAUS43 KDLH 271758
MTRGNA
METAR KGNA 271756Z AUTO 22009KT 17/12 A3019 RMK AO1 SLP221 T01670117
10189 20128 51002





000
SAUS43 KDLH 271657
MTRGNA
METAR KGNA 271656Z AUTO 19008KT 17/11 A3018 RMK AO1 SLP219 T01670111





000
SAUS43 KDLH 271557
MTRGNA
METAR KGNA 271556Z AUTO VRB03KT 18/08 A3019 RMK AO1 SLP220 T01780078





000
SAUS43 KDLH 271457
MTRGNA
METAR KGNA 271456Z AUTO VRB04KT 18/06 A3018 RMK AO1 SLP218 T01830061
51002





000
SAUS43 KDLH 271357
MTRGNA
METAR KGNA 271356Z AUTO 32005KT 17/10 A3018 RMK AO1 SLP218 T01720100





000
SAUS43 KDLH 271257
MTRGNA
METAR KGNA 271256Z AUTO 34005KT 15/10 A3018 RMK AO1 SLP218 T01500100





000
SAUS43 KDLH 271157
MTRGNA
METAR KGNA 271156Z AUTO 33007KT 13/09 A3018 RMK AO1 SLP217 T01280094
10139 20122 53009





000
SAUS43 KDLH 271057
MTRGNA
METAR KGNA 271056Z AUTO 33009G15KT 13/09 A3016 RMK AO1 SLP212
T01280089





000
SAUS43 KDLH 270957
MTRGNA
METAR KGNA 270956Z AUTO 34007KT 13/09 A3015 RMK AO1 SLP209 T01280094





000
SAUS43 KDLH 270857
MTRGNA
METAR KGNA 270856Z AUTO 33006KT 13/09 A3015 RMK AO1 SLP207 T01280089
58001





000
SAUS43 KDLH 270757
MTRGNA
METAR KGNA 270756Z AUTO VRB03KT 13/09 A3015 RMK AO1 SLP207 T01330089





000
SAUS43 KDLH 270658
MTRGNA
METAR KGNA 270656Z AUTO 32004KT 13/11 A3015 RMK AO1 SLP209 T01280106





000
SAUS43 KDLH 270557
MTRGNA
METAR KGNA 270556Z AUTO 00000KT 13/11 A3015 RMK AO1 SLP208 T01330106
10167 20133 402110111 53007





000
SAUS43 KDLH 270457
MTRGNA
METAR KGNA 270456Z AUTO 00000KT 14/10 A3014 RMK AO1 SLP204 T01390100





000
SAUS43 KDLH 270357
MTRGNA
METAR KGNA 270356Z AUTO 00000KT 14/10 A3013 RMK AO1 SLP201 T01440100





000
SAUS43 KDLH 270257
MTRGNA
METAR KGNA 270256Z AUTO 28003KT 14/10 A3013 RMK AO1 SLP202 T01440100
51010





    US Dept of Commerce
    National Oceanic and Atmospheric Administration
    National Weather Service
    1325 East West Highway
    Silver Spring, MD 20910
    Page Author: NWS Internet Services Team
Disclaimer
Information Quality
Credits
Glossary
Privacy Policy
Freedom of Information Act (FOIA)
About Us
Career Opportunities